createdAt,value
2022-12-29T00:00:08.991Z,6.50
2022-12-29T00:03:26.588Z,7.00
2022-12-29T00:05:59.831Z,7.00
2022-12-29T00:08:47.014Z,6.00
2022-12-29T00:14:29.411Z,5.70
2022-12-29T00:17:13.542Z,5.30
2022-12-29T00:20:25.571Z,4.80
2022-12-29T00:23:15.545Z,5.90
2022-12-29T00:26:18.646Z,4.60
2022-12-29T00:29:19.511Z,4.00
2022-12-29T00:32:12.800Z,4.50
2022-12-29T00:35:11.816Z,4.40
2022-12-29T00:38:25.839Z,4.50
2022-12-29T00:41:26.230Z,5.90
2022-12-29T00:44:18.709Z,5.00
2022-12-29T00:47:11.209Z,5.40
2022-12-29T00:49:54.873Z,5.50
2022-12-29T00:52:34.793Z,5.70
2022-12-29T00:55:19.901Z,6.20
2022-12-29T00:57:55.075Z,6.10
2022-12-29T01:00:40.022Z,5.50
2022-12-29T01:06:18.183Z,6.70
2022-12-29T01:09:08.793Z,5.40
2022-12-29T01:11:55.019Z,5.80
2022-12-29T01:14:27.904Z,5.00
2022-12-29T01:17:20.376Z,5.60
2022-12-29T01:19:58.490Z,6.40
2022-12-29T01:22:41.138Z,6.10
2022-12-29T01:25:25.549Z,6.00
2022-12-29T01:28:00.892Z,5.10
2022-12-29T01:30:36.200Z,6.10
2022-12-29T01:33:30.008Z,6.10
2022-12-29T01:36:13.840Z,6.90
2022-12-29T01:39:05.501Z,6.50
2022-12-29T01:41:41.082Z,6.20
2022-12-29T01:44:57.130Z,6.30
2022-12-29T01:47:52.636Z,7.40
2022-12-29T01:50:48.957Z,6.10
2022-12-29T01:53:23.698Z,5.40
2022-12-29T01:56:09.760Z,6.90
2022-12-29T01:58:58.238Z,6.70
2022-12-29T02:01:34.336Z,6.30
2022-12-29T02:04:07.491Z,6.90
2022-12-29T02:06:58.790Z,7.60
2022-12-29T02:09:31.381Z,6.90
2022-12-29T02:12:04.262Z,5.90
2022-12-29T02:14:39.912Z,6.10
2022-12-29T02:17:26.497Z,5.80
2022-12-29T02:20:40.009Z,5.70
2022-12-29T02:23:52.256Z,5.80
2022-12-29T02:27:01.254Z,6.10
2022-12-29T02:29:53.189Z,6.10
2022-12-29T02:32:33.999Z,5.40
2022-12-29T02:35:33.934Z,5.70
2022-12-29T02:38:22.499Z,5.80
2022-12-29T02:44:14.730Z,5.80
2022-12-29T02:46:56.547Z,5.70
2022-12-29T02:49:50.609Z,5.60
2022-12-29T02:52:34.329Z,6.20
2022-12-29T02:55:26.752Z,5.80
2022-12-29T02:58:20.846Z,5.50
2022-12-29T03:04:18.648Z,6.30
2022-12-29T03:07:22.443Z,6.00
2022-12-29T03:10:27.365Z,5.90
2022-12-29T03:13:47.726Z,6.10
2022-12-29T03:16:46.919Z,6.60
2022-12-29T03:19:42.300Z,6.50
2022-12-29T03:22:38.877Z,6.20
2022-12-29T03:25:36.071Z,5.90
2022-12-29T03:28:32.924Z,5.80
2022-12-29T03:31:16.837Z,5.60
2022-12-29T03:34:03.991Z,5.80
2022-12-29T03:37:01.670Z,5.10
2022-12-29T03:39:37.918Z,6.20
2022-12-29T03:42:33.719Z,6.00
2022-12-29T03:45:21.374Z,5.30
2022-12-29T03:48:13.723Z,4.50
2022-12-29T03:51:07.908Z,5.20
2022-12-29T03:53:50.652Z,5.00
2022-12-29T03:59:34.168Z,5.50
2022-12-29T04:02:27.099Z,5.20
2022-12-29T04:05:21.796Z,5.80
2022-12-29T04:08:14.392Z,5.50
2022-12-29T04:11:06.988Z,5.30
2022-12-29T04:13:50.751Z,5.40
2022-12-29T04:16:44.098Z,5.40
2022-12-29T04:19:29.331Z,5.50
2022-12-29T04:22:14.172Z,5.50
2022-12-29T04:27:58.262Z,5.10
2022-12-29T04:31:00.113Z,5.40
2022-12-29T04:33:44.330Z,5.70
2022-12-29T04:36:36.927Z,5.60
2022-12-29T04:39:29.081Z,6.00
2022-12-29T04:42:21.517Z,5.60
2022-12-29T04:45:15.048Z,5.30
2022-12-29T04:48:13.696Z,7.10
2022-12-29T04:51:08.998Z,6.30
2022-12-29T04:53:54.899Z,6.20
2022-12-29T04:56:47.347Z,6.50
2022-12-29T04:59:32.983Z,5.50
2022-12-29T05:02:30.611Z,5.30
2022-12-29T05:05:17.515Z,5.50
2022-12-29T05:08:10.346Z,4.70
2022-12-29T05:10:53.793Z,5.70
2022-12-29T05:13:39.104Z,6.90
2022-12-29T05:16:22.046Z,5.30
2022-12-29T05:19:08.574Z,6.10
2022-12-29T05:21:54.147Z,5.20
2022-12-29T05:24:47.357Z,5.20
2022-12-29T05:27:34.731Z,5.80
2022-12-29T05:30:36.158Z,5.50
2022-12-29T05:33:28.900Z,6.50
2022-12-29T05:39:09.869Z,7.20
2022-12-29T05:41:56.111Z,5.50
2022-12-29T05:45:02.934Z,6.00
2022-12-29T05:47:58.278Z,6.40
2022-12-29T05:50:53.112Z,7.30
2022-12-29T05:53:46.134Z,7.40
2022-12-29T05:56:33.252Z,6.20
2022-12-29T05:59:26.484Z,6.50
2022-12-29T06:02:19.428Z,5.40
2022-12-29T06:05:02.414Z,6.90
2022-12-29T06:07:42.916Z,5.60
2022-12-29T06:10:36.180Z,6.60
2022-12-29T06:13:29.807Z,6.50
2022-12-29T06:16:23.040Z,5.90
2022-12-29T06:19:09.177Z,5.60
2022-12-29T06:24:53.129Z,5.20
2022-12-29T06:27:29.522Z,5.70
2022-12-29T06:30:22.546Z,5.30
2022-12-29T06:33:15.629Z,5.30
2022-12-29T06:36:09.946Z,5.80
2022-12-29T06:39:02.989Z,5.00
2022-12-29T06:41:44.872Z,6.00
2022-12-29T06:44:27.155Z,5.60
2022-12-29T06:47:20.040Z,5.70
2022-12-29T06:50:03.997Z,6.80
2022-12-29T06:52:56.504Z,6.70
2022-12-29T06:55:47.799Z,6.70
2022-12-29T06:58:41.049Z,6.20
2022-12-29T07:01:20.665Z,6.40
2022-12-29T07:06:55.114Z,5.80
2022-12-29T07:12:38.562Z,6.50
2022-12-29T07:18:21.653Z,6.90
2022-12-29T07:21:14.353Z,8.30
2022-12-29T07:24:07.760Z,7.20
2022-12-29T07:26:50.998Z,6.50
2022-12-29T07:29:29.121Z,6.50
2022-12-29T07:32:21.407Z,6.90
2022-12-29T07:35:14.522Z,6.90
2022-12-29T07:38:07.224Z,6.20
2022-12-29T07:40:39.943Z,6.80
2022-12-29T07:43:32.365Z,8.50
2022-12-29T07:46:56.677Z,7.80
2022-12-29T07:49:37.699Z,9.30
2022-12-29T07:52:30.114Z,10.80
2022-12-29T07:55:13.846Z,9.90
2022-12-29T07:57:46.541Z,12.80
2022-12-29T08:00:39.067Z,7.70
2022-12-29T08:03:27.033Z,8.00
2022-12-29T08:06:23.516Z,7.80
2022-12-29T08:09:07.859Z,10.60
2022-12-29T08:11:45.101Z,9.80
2022-12-29T08:14:20.548Z,8.00
2022-12-29T08:16:57.398Z,7.90
2022-12-29T08:19:38.979Z,9.10
2022-12-29T08:22:31.737Z,8.20
2022-12-29T08:25:22.803Z,7.60
2022-12-29T08:28:16.511Z,7.50
2022-12-29T08:31:10.806Z,6.70
2022-12-29T08:33:53.842Z,7.60
2022-12-29T08:39:36.983Z,8.40
2022-12-29T08:42:19.855Z,8.00
2022-12-29T08:48:04.267Z,5.40
2022-12-29T08:50:56.868Z,5.70
2022-12-29T08:53:49.433Z,7.20
2022-12-29T08:59:32.959Z,7.90
2022-12-29T09:02:26.195Z,7.20
2022-12-29T09:05:14.584Z,8.90
2022-12-29T09:08:06.971Z,8.00
2022-12-29T09:11:07.591Z,8.90
2022-12-29T09:14:00.841Z,7.30
2022-12-29T09:17:12.741Z,8.00
2022-12-29T09:19:59.594Z,13.50
2022-12-29T09:22:52.848Z,13.50
2022-12-29T09:25:38.879Z,10.50
2022-12-29T09:28:32.408Z,9.60
2022-12-29T09:31:26.264Z,8.00
2022-12-29T09:34:20.080Z,6.50
2022-12-29T09:37:13.197Z,7.30
2022-12-29T09:40:06.655Z,6.80
2022-12-29T09:43:05.663Z,9.20
2022-12-29T09:46:09.331Z,8.20
2022-12-29T09:49:15.269Z,11.90
2022-12-29T09:52:15.535Z,13.70
2022-12-29T09:55:02.886Z,19.80
2022-12-29T09:57:55.919Z,9.50
2022-12-29T10:00:55.093Z,7.80
2022-12-29T10:03:52.960Z,8.50
2022-12-29T10:07:28.033Z,7.40
2022-12-29T10:10:19.398Z,9.70
2022-12-29T10:13:26.891Z,10.30
2022-12-29T10:16:27.676Z,12.00
2022-12-29T10:19:48.544Z,12.20
2022-12-29T10:22:53.783Z,14.40
2022-12-29T10:25:47.031Z,11.00
2022-12-29T10:28:41.166Z,8.50
2022-12-29T10:34:24.564Z,14.70
2022-12-29T10:37:17.957Z,21.30
2022-12-29T10:39:55.056Z,25.30
2022-12-29T10:42:52.655Z,14.80
2022-12-29T10:45:45.510Z,17.70
2022-12-29T10:48:38.613Z,15.60
2022-12-29T10:51:26.560Z,13.60
2022-12-29T10:54:06.387Z,20.20
2022-12-29T10:57:06.442Z,15.90
2022-12-29T10:59:59.611Z,8.60
2022-12-29T11:03:04.801Z,8.00
2022-12-29T11:05:57.321Z,9.00
2022-12-29T11:08:57.503Z,8.30
2022-12-29T11:11:49.966Z,10.10
2022-12-29T11:14:33.800Z,10.60
2022-12-29T11:17:06.808Z,11.40
2022-12-29T11:19:41.669Z,32.90
2022-12-29T11:22:26.289Z,29.10
2022-12-29T11:25:18.890Z,29.50
2022-12-29T11:28:18.611Z,19.70
2022-12-29T11:31:05.838Z,9.70
2022-12-29T11:33:46.684Z,11.40
2022-12-29T11:36:31.915Z,10.00
2022-12-29T11:39:10.477Z,11.30
2022-12-29T11:42:10.663Z,9.00
2022-12-29T11:45:10.681Z,13.10
2022-12-29T11:48:09.099Z,10.90
2022-12-29T11:51:02.002Z,12.00
2022-12-29T11:53:58.327Z,13.30
2022-12-29T11:56:53.338Z,17.90
2022-12-29T11:59:42.807Z,13.30
2022-12-29T12:02:42.182Z,11.40
2022-12-29T12:05:32.045Z,9.50
2022-12-29T12:08:34.676Z,9.80
2022-12-29T12:11:37.390Z,13.20
2022-12-29T12:14:34.149Z,11.40
2022-12-29T12:17:45.255Z,13.70
2022-12-29T12:20:47.466Z,8.90
2022-12-29T12:23:35.019Z,8.50
2022-12-29T12:26:18.834Z,9.50
2022-12-29T12:29:17.840Z,10.00
2022-12-29T12:32:18.531Z,15.00
2022-12-29T12:35:21.338Z,13.80
2022-12-29T12:38:24.042Z,14.20
2022-12-29T12:41:25.045Z,14.80
2022-12-29T12:44:27.426Z,17.20
2022-12-29T12:50:21.402Z,7.80
2022-12-29T12:53:09.508Z,6.80
2022-12-29T12:56:14.837Z,8.10
2022-12-29T12:59:09.765Z,10.70
2022-12-29T13:02:13.971Z,13.80
2022-12-29T13:05:00.870Z,12.70
2022-12-29T13:08:25.855Z,8.30
2022-12-29T13:11:27.234Z,12.30
2022-12-29T13:14:13.794Z,14.30
2022-12-29T13:17:15.020Z,12.20
2022-12-29T13:19:57.606Z,10.60
2022-12-29T13:22:46.162Z,19.90
2022-12-29T13:25:34.708Z,25.50
2022-12-29T13:28:19.343Z,20.20
2022-12-29T13:31:03.261Z,17.40
2022-12-29T13:34:02.985Z,12.10
2022-12-29T13:36:44.142Z,14.20
2022-12-29T13:39:41.024Z,9.90
2022-12-29T13:42:34.272Z,13.60
2022-12-29T13:45:21.550Z,12.80
2022-12-29T13:48:21.453Z,14.00
2022-12-29T13:51:04.429Z,17.60
2022-12-29T13:53:44.464Z,10.60
2022-12-29T13:56:26.773Z,12.80
2022-12-29T13:59:20.006Z,9.70
2022-12-29T14:02:18.749Z,11.70
2022-12-29T14:05:07.930Z,9.20
2022-12-29T14:08:03.970Z,11.10
2022-12-29T14:10:53.451Z,13.40
2022-12-29T14:13:42.614Z,25.30
2022-12-29T14:16:37.622Z,22.00
2022-12-29T14:19:26.206Z,18.40
2022-12-29T14:22:33.074Z,28.70
2022-12-29T14:25:50.731Z,25.00
2022-12-29T14:28:39.480Z,31.50
2022-12-29T14:31:43.029Z,32.50
2022-12-29T14:34:39.674Z,19.20
2022-12-29T14:37:31.187Z,12.70
2022-12-29T14:40:24.941Z,14.90
2022-12-29T14:43:26.558Z,14.20
2022-12-29T14:46:19.239Z,14.30
2022-12-29T14:49:20.646Z,11.90
2022-12-29T14:52:25.197Z,14.80
2022-12-29T14:55:42.865Z,14.30
2022-12-29T14:58:46.565Z,17.60
2022-12-29T15:01:41.027Z,22.70
2022-12-29T15:04:37.477Z,15.90
2022-12-29T15:07:21.762Z,17.00
2022-12-29T15:10:14.629Z,15.90
2022-12-29T15:13:16.923Z,14.20
2022-12-29T15:16:26.633Z,15.10
2022-12-29T15:19:27.709Z,16.10
2022-12-29T15:22:05.623Z,17.90
2022-12-29T15:24:59.950Z,18.40
2022-12-29T15:27:55.136Z,17.00
2022-12-29T15:30:32.393Z,12.00
2022-12-29T15:36:15.216Z,10.50
2022-12-29T15:38:53.146Z,15.40
2022-12-29T15:42:02.440Z,11.20
2022-12-29T15:44:57.788Z,15.40
2022-12-29T15:47:58.707Z,9.60
2022-12-29T15:50:51.651Z,11.80
2022-12-29T15:53:29.468Z,9.50
2022-12-29T15:56:22.383Z,10.30
2022-12-29T15:59:07.749Z,9.40
2022-12-29T16:01:51.943Z,10.10
2022-12-29T16:05:16.096Z,14.10
2022-12-29T16:08:01.487Z,12.50
2022-12-29T16:10:51.513Z,12.90
2022-12-29T16:13:33.138Z,12.70
2022-12-29T16:16:21.520Z,15.70
2022-12-29T16:19:20.120Z,17.80
2022-12-29T16:22:33.107Z,16.70
2022-12-29T16:25:13.403Z,16.60
2022-12-29T16:28:17.773Z,18.30
2022-12-29T16:31:04.728Z,11.50
2022-12-29T16:33:51.927Z,14.90
2022-12-29T16:36:42.129Z,15.80
2022-12-29T16:39:27.474Z,22.50
2022-12-29T16:42:51.748Z,18.90
2022-12-29T16:46:08.314Z,17.70
2022-12-29T16:48:54.898Z,14.20
2022-12-29T16:51:39.418Z,15.00
2022-12-29T16:54:35.713Z,15.30
2022-12-29T16:57:33.236Z,17.30
2022-12-29T17:00:29.030Z,15.10
2022-12-29T17:03:15.479Z,16.20
2022-12-29T17:06:01.052Z,12.20
2022-12-29T17:08:46.848Z,11.10
2022-12-29T17:12:01.696Z,10.50
2022-12-29T17:14:58.883Z,15.80
2022-12-29T17:17:53.528Z,19.00
2022-12-29T17:20:31.199Z,22.50
2022-12-29T17:23:24.484Z,24.40
2022-12-29T17:26:05.382Z,22.70
2022-12-29T17:28:37.824Z,23.40
2022-12-29T17:31:30.303Z,19.00
2022-12-29T17:34:13.069Z,18.20
2022-12-29T17:36:54.517Z,16.60
2022-12-29T17:39:47.795Z,15.60
2022-12-29T17:42:22.331Z,14.50
2022-12-29T17:45:19.490Z,14.40
2022-12-29T17:48:02.397Z,17.40
2022-12-29T17:50:58.394Z,11.20
2022-12-29T17:53:54.246Z,11.00
2022-12-29T17:56:46.963Z,9.30
2022-12-29T17:59:33.240Z,13.40
2022-12-29T18:02:31.010Z,10.30
2022-12-29T18:05:23.416Z,10.70
2022-12-29T18:08:00.464Z,10.70
2022-12-29T18:10:36.127Z,11.30
2022-12-29T18:13:43.558Z,11.30
2022-12-29T18:16:38.166Z,14.20
2022-12-29T18:22:21.142Z,13.10
2022-12-29T18:25:23.440Z,14.30
2022-12-29T18:28:07.115Z,14.30
2022-12-29T18:31:01.546Z,11.60
2022-12-29T18:33:40.438Z,25.10
2022-12-29T18:36:34.474Z,27.70
2022-12-29T18:39:17.832Z,12.40
2022-12-29T18:41:53.085Z,12.60
2022-12-29T18:44:46.107Z,13.40
2022-12-29T18:47:22.431Z,17.00
2022-12-29T18:50:15.880Z,15.30
2022-12-29T18:53:01.620Z,17.00
2022-12-29T18:55:58.993Z,15.40
2022-12-29T18:58:53.971Z,15.90
2022-12-29T19:01:37.036Z,15.00
2022-12-29T19:07:21.179Z,17.90
2022-12-29T19:10:07.474Z,20.20
2022-12-29T19:13:00.037Z,17.80
2022-12-29T19:15:52.717Z,18.70
2022-12-29T19:18:44.240Z,14.50
2022-12-29T19:21:38.200Z,14.40
2022-12-29T19:24:30.707Z,12.90
2022-12-29T19:30:15.948Z,13.80
2022-12-29T19:33:09.749Z,13.00
2022-12-29T19:35:45.983Z,11.60
2022-12-29T19:38:21.521Z,10.80
2022-12-29T19:41:14.473Z,12.00
2022-12-29T19:44:09.059Z,11.60
2022-12-29T19:47:00.181Z,11.90
